Degognia, Illinois
Current Conditions -  °F | °C
As of 11:52 AM on Friday 28 Nov 2014 (Local Time) from KMDH Reporting Station
Clear Clear  
Wind Chill: 36°   Ceiling: Unl
Heat Index: 44°   Visibility: 10mi
Dew Point: 30°   Wind: 21mph
Humidity: 58%   Direction: 200°SSW
Pressure: 30.21"   Gusts: 28mph
Location:  37.7458°N, 89.5469°W
Report Text: KMDH 281752Z AUTO 20018G24KT 10SM CLR 07/M01 A3021 RMK AO2 PK WND 20030/1727 SLP232 T00671011 10067 21044 58039
Loading
Personal Weather Stations






























Interactive Weather Map New forecast layout! Learn more

10-Day Weather Forecast

Advertisements
Track Severe Weather on mobile